Time;durP1;ratioP1;P1;durP2;ratioP2;P2;SDS_P1;SDS_P2;PMS_P1;PMS_P2;Temp;Humidity;BMP_temperature;BMP_pressure;BME280_temperature;BME280_humidity;BME280_pressure;Samples;Min_cycle;Max_cycle;Signal;HPM_P1;HPM_P2
2022/03/10 00:00:12;;;;;;;19.40;11.52;;;;;;;-3.64;77.93;99588.50;4199139;28;20184;-71
2022/03/10 00:02:13;;;;;;;23.48;11.35;;;;;;;-3.68;77.31;99593.59;4204233;28;20145;-71
2022/03/10 00:04:13;;;;;;;19.27;10.88;;;;;;;-3.69;77.89;99601.97;4203382;28;20090;-72
2022/03/10 00:06:14;;;;;;;18.33;11.13;;;;;;;-3.77;78.89;99602.44;4188645;28;20356;-72
2022/03/10 00:08:14;;;;;;;21.90;11.13;;;;;;;-3.84;79.24;99604.53;4194844;28;20028;-72
2022/03/10 00:10:14;;;;;;;19.00;10.50;;;;;;;-3.83;79.23;99603.44;4197985;28;20115;-72
2022/03/10 00:12:15;;;;;;;21.42;10.63;;;;;;;-3.81;79.38;99601.28;4198839;28;20050;-72
2022/03/10 00:14:15;;;;;;;18.38;10.43;;;;;;;-3.83;78.96;99595.34;4194719;28;20016;-72
2022/03/10 00:16:15;;;;;;;15.52;9.13;;;;;;;-3.86;78.35;99593.97;4189122;28;20487;-72
2022/03/10 00:18:16;;;;;;;24.00;11.32;;;;;;;-3.92;79.07;99603.09;4188240;28;20028;-72
2022/03/10 00:20:16;;;;;;;19.75;10.80;;;;;;;-3.98;79.47;99586.00;4194493;28;20032;-72
2022/03/10 00:22:16;;;;;;;23.13;11.13;;;;;;;-4.01;79.93;99599.22;4188438;28;20142;-72
2022/03/10 00:24:18;;;;;;;20.13;11.52;;;;;;;-4.00;81.19;99595.44;4188981;28;20021;-72
2022/03/10 00:26:19;;;;;;;20.77;10.33;;;;;;;-4.05;81.27;99603.53;4199767;28;20024;-72
2022/03/10 00:28:19;;;;;;;21.73;10.10;;;;;;;-4.11;81.48;99594.53;4189406;28;20059;-72
2022/03/10 00:30:19;;;;;;;20.38;10.63;;;;;;;-4.08;82.32;99591.31;4189146;28;20405;-72
2022/03/10 00:32:20;;;;;;;18.00;9.98;;;;;;;-4.08;82.22;99591.31;4188386;28;20031;-72
2022/03/10 00:34:20;;;;;;;19.45;10.32;;;;;;;-4.12;82.24;99595.63;4188881;28;20053;-71
2022/03/10 00:36:20;;;;;;;17.55;9.80;;;;;;;-4.13;81.64;99601.28;4188370;28;20465;-72
2022/03/10 00:38:21;;;;;;;15.90;8.77;;;;;;;-4.17;81.73;99594.72;4194571;28;20043;-72
2022/03/10 00:40:22;;;;;;;16.27;9.32;;;;;;;-4.17;82.95;99595.56;4204380;28;20036;-72
2022/03/10 00:42:22;;;;;;;16.27;9.13;;;;;;;-4.23;83.45;99601.97;4196249;28;20083;-72
2022/03/10 00:44:22;;;;;;;16.30;9.45;;;;;;;-4.29;83.36;99603.00;4190729;28;20292;-71
2022/03/10 00:46:23;;;;;;;14.70;9.38;;;;;;;-4.35;83.40;99604.00;4197104;28;20041;-71
2022/03/10 00:48:23;;;;;;;17.95;9.18;;;;;;;-4.43;83.95;99601.75;4187343;28;20047;-72
2022/03/10 00:50:23;;;;;;;18.77;10.15;;;;;;;-4.50;84.21;99611.94;4195135;28;20151;-72
2022/03/10 00:52:24;;;;;;;18.88;9.02;;;;;;;-4.50;84.11;99614.63;4202235;28;20047;-72
2022/03/10 00:54:24;;;;;;;15.43;9.27;;;;;;;-4.52;84.40;99610.28;4203880;28;20040;-72
2022/03/10 00:56:24;;;;;;;15.20;9.60;;;;;;;-4.50;84.61;99611.94;4203111;28;20211;-72
2022/03/10 00:58:25;;;;;;;18.30;10.07;;;;;;;-4.57;84.49;99607.53;4201906;28;20052;-72
2022/03/10 01:00:28;;;;;;;23.38;9.77;;;;;;;-4.56;84.49;99622.66;4203531;28;20079;-72
2022/03/10 01:02:30;;;;;;;17.30;9.60;;;;;;;-4.58;84.93;99611.28;4187959;28;20143;-72
2022/03/10 01:04:31;;;;;;;18.20;10.15;;;;;;;-4.60;84.78;99621.53;4187891;28;20044;-72
2022/03/10 01:06:31;;;;;;;17.02;8.80;;;;;;;-4.66;85.50;99619.84;4187447;28;20102;-72
2022/03/10 01:08:31;;;;;;;15.23;9.35;;;;;;;-4.68;85.30;99624.69;4187471;28;20441;-72
2022/03/10 01:10:32;;;;;;;17.40;10.20;;;;;;;-4.72;84.76;99618.13;4188302;28;20040;-72
2022/03/10 01:12:32;;;;;;;17.80;10.45;;;;;;;-4.74;84.06;99612.16;4196918;28;20039;-72
2022/03/10 01:14:33;;;;;;;20.70;10.15;;;;;;;-4.78;84.44;99635.34;4203725;28;20105;-72
2022/03/10 01:16:33;;;;;;;21.27;10.38;;;;;;;-4.70;84.31;99629.53;4202030;28;20044;-72
2022/03/10 01:18:34;;;;;;;19.80;10.68;;;;;;;-4.70;82.73;99632.22;4202853;28;20059;-72
2022/03/10 01:20:34;;;;;;;17.80;10.48;;;;;;;-4.71;82.34;99638.69;4199972;28;20086;-72
2022/03/10 01:22:35;;;;;;;27.88;10.05;;;;;;;-4.72;83.08;99641.63;4187568;28;20080;-72
2022/03/10 01:24:36;;;;;;;16.00;9.88;;;;;;;-4.68;82.43;99626.56;4187783;28;20445;-72
2022/03/10 01:26:36;;;;;;;19.73;11.50;;;;;;;-4.62;81.90;99633.66;4187150;28;20041;-71
2022/03/10 01:28:36;;;;;;;18.90;10.50;;;;;;;-4.62;81.44;99623.69;4203133;28;20048;-71
2022/03/10 01:30:37;;;;;;;23.00;10.88;;;;;;;-4.62;81.33;99626.38;4196361;28;20039;-71
2022/03/10 01:32:37;;;;;;;16.65;9.30;;;;;;;-4.59;80.86;99633.97;4188393;28;20159;-71
2022/03/10 01:34:38;;;;;;;18.48;10.35;;;;;;;-4.63;80.21;99632.03;4190305;28;20132;-71
2022/03/10 01:36:38;;;;;;;21.98;11.27;;;;;;;-4.67;80.86;99645.22;4191570;28;20036;-71
2022/03/10 01:38:39;;;;;;;19.63;10.50;;;;;;;-4.75;81.76;99645.63;4190586;28;20150;-72
2022/03/10 01:40:40;;;;;;;24.80;11.35;;;;;;;-4.79;82.08;99636.41;4189305;28;20098;-72
2022/03/10 01:42:40;;;;;;;21.50;11.02;;;;;;;-4.81;81.93;99638.53;4183194;28;20072;-72
2022/03/10 01:44:41;;;;;;;20.30;10.55;;;;;;;-4.81;81.81;99642.03;4183829;28;20127;-72
2022/03/10 01:46:41;;;;;;;23.30;11.80;;;;;;;-4.83;82.52;99640.66;4183263;28;20076;-72
2022/03/10 01:48:42;;;;;;;20.42;9.85;;;;;;;-4.82;82.52;99645.00;4183041;28;20118;-72
2022/03/10 01:50:42;;;;;;;21.63;10.63;;;;;;;-4.81;81.86;99650.16;4181836;28;20041;-72
2022/03/10 01:52:43;;;;;;;23.20;11.02;;;;;;;-4.83;81.77;99649.59;4183437;28;20056;-72
2022/03/10 01:54:43;;;;;;;20.73;10.95;;;;;;;-4.87;82.34;99644.94;4188155;28;20052;-72
2022/03/10 01:56:43;;;;;;;18.70;10.20;;;;;;;-4.91;82.86;99652.72;4190635;28;20040;-72
2022/03/10 01:58:49;;;;;;;18.67;9.63;;;;;;;-4.95;83.47;99646.19;4188668;28;20041;-72
2022/03/10 02:00:49;;;;;;;18.52;10.75;;;;;;;-4.96;83.69;99652.66;4201802;28;20044;-72
2022/03/10 02:02:50;;;;;;;19.05;10.57;;;;;;;-4.95;82.85;99656.16;4183863;28;20384;-72
2022/03/10 02:04:50;;;;;;;18.63;11.02;;;;;;;-4.98;83.00;99653.94;4187227;28;20036;-72
2022/03/10 02:06:52;;;;;;;23.33;11.63;;;;;;;-5.00;83.38;99656.09;4190003;28;20041;-71
2022/03/10 02:11:12;;;;;;;20.25;10.38;;;;;;;-5.06;84.90;99644.38;4198080;28;20054;-71
2022/03/10 02:13:13;;;;;;;22.90;11.30;;;;;;;-5.07;85.35;99648.16;4195767;28;20044;-71
2022/03/10 02:17:40;;;;;;;19.33;10.55;;;;;;;-5.05;86.51;99639.81;4186299;28;20071;-72
2022/03/10 02:19:40;;;;;;;18.42;9.68;;;;;;;-5.02;86.36;99642.03;4191532;28;20348;-71
2022/03/10 02:21:40;;;;;;;18.15;9.98;;;;;;;-5.06;86.95;99635.47;4194445;28;20471;-71
2022/03/10 02:23:41;;;;;;;21.50;10.48;;;;;;;-5.09;86.83;99637.59;4187072;28;20135;-72
2022/03/10 02:25:41;;;;;;;21.45;9.90;;;;;;;-5.10;87.12;99645.97;4186909;28;20051;-72
2022/03/10 02:27:49;;;;;;;19.02;9.50;;;;;;;-5.16;86.88;99645.06;4186056;28;20049;-72
2022/03/10 02:29:52;;;;;;;18.55;9.93;;;;;;;-5.25;86.73;99643.84;4186553;28;20040;-72
2022/03/10 02:31:53;;;;;;;20.55;9.90;;;;;;;-5.31;87.17;99647.50;4186535;28;20048;-72
2022/03/10 02:33:55;;;;;;;19.83;9.48;;;;;;;-5.35;87.17;99642.88;4186746;28;20434;-72
2022/03/10 02:35:55;;;;;;;16.70;10.00;;;;;;;-5.43;87.70;99644.09;4186453;28;20535;-72
2022/03/10 02:37:56;;;;;;;18.40;9.73;;;;;;;-5.47;87.90;99651.84;4187800;28;20083;-72
2022/03/10 02:39:56;;;;;;;16.55;9.68;;;;;;;-5.43;86.44;99654.88;4202516;28;20180;-72
2022/03/10 02:41:57;;;;;;;20.10;10.02;;;;;;;-5.45;85.70;99654.31;4200769;28;20261;-71
2022/03/10 02:43:57;;;;;;;17.92;9.13;;;;;;;-5.49;85.71;99661.25;4193516;28;20131;-72
2022/03/10 02:45:57;;;;;;;33.22;10.70;;;;;;;-5.47;85.37;99651.84;4193265;28;20388;-72
2022/03/10 02:47:57;;;;;;;17.70;9.90;;;;;;;-5.50;86.17;99651.53;4185797;28;20040;-72
2022/03/10 02:49:58;;;;;;;20.70;10.05;;;;;;;-5.47;85.34;99653.72;4186489;28;20033;-72
2022/03/10 02:51:58;;;;;;;18.58;9.77;;;;;;;-5.46;84.83;99658.91;4191558;28;20044;-72
2022/03/10 02:53:59;;;;;;;23.30;11.15;;;;;;;-5.49;83.56;99661.25;4202874;28;20453;-72
2022/03/10 02:55:59;;;;;;;19.48;10.80;;;;;;;-5.51;84.49;99660.69;4200245;28;20435;-71
2022/03/10 02:58:00;;;;;;;18.50;10.00;;;;;;;-5.43;84.77;99658.41;4196676;28;20178;-72
2022/03/10 03:00:01;;;;;;;19.40;10.43;;;;;;;-5.39;83.99;99664.09;4186318;28;20097;-72
2022/03/10 03:02:02;;;;;;;29.85;11.35;;;;;;;-5.34;83.55;99653.41;4185965;28;20040;-71
2022/03/10 03:04:02;;;;;;;21.52;10.23;;;;;;;-5.31;83.92;99652.91;4186318;28;20055;-72
2022/03/10 03:06:03;;;;;;;20.50;10.50;;;;;;;-5.31;83.37;99650.22;4187845;28;20067;-72
2022/03/10 03:08:03;;;;;;;22.30;12.13;;;;;;;-5.27;82.54;99651.38;4201718;28;20420;-72
2022/03/10 03:10:05;;;;;;;19.48;10.85;;;;;;;-5.27;82.86;99664.03;4187763;28;20375;-72
2022/03/10 03:12:05;;;;;;;21.65;11.65;;;;;;;-5.30;82.90;99662.63;4185836;28;20104;-72
2022/03/10 03:14:06;;;;;;;25.70;12.73;;;;;;;-5.30;82.46;99649.16;4186603;28;20068;-72
2022/03/10 03:16:06;;;;;;;21.80;11.98;;;;;;;-5.26;82.49;99652.19;4185989;28;20052;-72
2022/03/10 03:18:07;;;;;;;20.88;10.80;;;;;;;-5.17;81.94;99656.91;4191921;28;20038;-72
2022/03/10 03:20:09;;;;;;;26.08;11.63;;;;;;;-5.20;82.53;99651.22;4201417;28;20036;-72
2022/03/10 03:22:09;;;;;;;23.30;11.48;;;;;;;-5.25;82.57;99651.94;4198665;28;20016;-72
2022/03/10 03:24:09;;;;;;;20.70;10.70;;;;;;;-5.32;82.18;99651.28;4192034;28;20072;-72
2022/03/10 03:26:10;;;;;;;23.85;10.95;;;;;;;-5.41;82.42;99658.16;4204755;28;20516;-72
2022/03/10 03:28:10;;;;;;;19.77;10.85;;;;;;;-5.42;82.47;99653.81;4204562;28;20032;-72
2022/03/10 03:30:11;;;;;;;20.88;11.35;;;;;;;-5.46;82.37;99656.19;4203863;28;20455;-72
2022/03/10 03:32:11;;;;;;;19.63;10.20;;;;;;;-5.45;83.13;99660.53;4194610;28;20032;-72
2022/03/10 03:34:12;;;;;;;21.73;10.70;;;;;;;-5.45;81.25;99648.94;4189624;28;20310;-72
2022/03/10 03:36:12;;;;;;;20.05;10.20;;;;;;;-5.46;82.16;99649.97;4189423;28;20028;-72
2022/03/10 03:38:12;;;;;;;22.13;11.90;;;;;;;-5.52;82.01;99654.47;4201408;28;20456;-72
2022/03/10 03:40:14;;;;;;;21.30;10.60;;;;;;;-5.58;82.33;99654.63;4204313;28;20111;-72
2022/03/10 03:42:14;;;;;;;23.67;10.70;;;;;;;-5.54;81.70;99653.09;4205082;28;20118;-72
2022/03/10 03:44:15;;;;;;;23.23;11.57;;;;;;;-5.55;82.50;99656.81;4203681;28;20727;-72
2022/03/10 03:46:15;;;;;;;27.35;12.05;;;;;;;-5.61;82.39;99658.63;4192793;28;20457;-72
2022/03/10 03:48:15;;;;;;;21.38;10.75;;;;;;;-5.71;82.11;99653.88;4188549;28;20035;-72
2022/03/10 03:50:16;;;;;;;26.92;14.20;;;;;;;-5.79;82.90;99654.28;4190914;28;20072;-72
2022/03/10 03:52:16;;;;;;;25.42;13.40;;;;;;;-5.85;83.87;99657.13;4191028;28;20613;-72
2022/03/10 03:54:16;;;;;;;34.75;15.18;;;;;;;-5.99;84.35;99662.84;4189511;28;20043;-72
2022/03/10 03:56:17;;;;;;;29.83;15.00;;;;;;;-6.11;85.38;99664.78;4188812;28;20017;-72
2022/03/10 03:58:19;;;;;;;24.75;11.85;;;;;;;-6.16;85.29;99663.84;4202381;28;20097;-72
2022/03/10 04:00:19;;;;;;;33.30;13.02;;;;;;;-6.14;85.22;99664.41;4198610;28;20161;-72
2022/03/10 04:02:20;;;;;;;24.17;12.50;;;;;;;-6.13;86.36;99671.44;4195457;28;23313;-72
2022/03/10 04:04:22;;;;;;;25.98;13.48;;;;;;;-6.09;85.83;99667.22;4195353;28;20527;-72
2022/03/10 04:06:22;;;;;;;22.00;11.63;;;;;;;-6.05;85.56;99671.88;4188942;28;20067;-72
2022/03/10 04:08:23;;;;;;;23.05;11.73;;;;;;;-6.02;84.92;99671.41;4194604;28;20441;-71
2022/03/10 04:10:23;;;;;;;25.33;12.40;;;;;;;-6.04;84.44;99665.44;4197582;28;20036;-72
2022/03/10 04:12:23;;;;;;;25.05;11.18;;;;;;;-6.08;85.05;99666.97;4198033;28;20469;-72
2022/03/10 04:14:24;;;;;;;24.75;10.90;;;;;;;-6.13;83.62;99666.06;4203518;28;20040;-71
2022/03/10 04:16:24;;;;;;;25.20;12.30;;;;;;;-6.20;85.76;99671.59;4198179;28;20041;-72
2022/03/10 04:18:24;;;;;;;23.35;11.73;;;;;;;-6.22;86.20;99668.31;4200393;28;20383;-72
2022/03/10 04:20:25;;;;;;;23.67;12.02;;;;;;;-6.14;87.15;99670.63;4189577;28;20531;-72
2022/03/10 04:22:25;;;;;;;20.30;10.70;;;;;;;-6.02;85.89;99673.28;4188829;28;20068;-72
2022/03/10 04:24:26;;;;;;;21.58;11.48;;;;;;;-5.96;85.25;99669.59;4188890;28;20039;-71
2022/03/10 04:26:27;;;;;;;21.55;11.40;;;;;;;-5.95;84.56;99671.28;4188469;28;20044;-71
2022/03/10 04:28:27;;;;;;;23.55;11.95;;;;;;;-5.96;84.87;99667.75;4188007;28;20044;-72
2022/03/10 04:30:27;;;;;;;22.80;11.85;;;;;;;-5.99;84.93;99662.84;4188237;28;20119;-72
2022/03/10 04:32:28;;;;;;;21.65;10.68;;;;;;;-6.03;85.60;99664.38;4199191;28;20051;-72
2022/03/10 04:34:28;;;;;;;22.10;10.55;;;;;;;-6.13;85.24;99664.16;4201799;28;20329;-72
2022/03/10 04:36:28;;;;;;;23.92;11.68;;;;;;;-6.18;85.22;99664.09;4203328;28;20068;-72
2022/03/10 04:38:29;;;;;;;21.42;10.07;;;;;;;-6.27;86.72;99662.84;4202859;28;20043;-72
2022/03/10 04:40:29;;;;;;;21.55;10.15;;;;;;;-6.30;85.39;99658.72;4188511;28;20037;-72
2022/03/10 04:42:30;;;;;;;21.10;10.48;;;;;;;-6.28;85.88;99661.22;4188394;28;20401;-72
2022/03/10 04:44:30;;;;;;;23.77;10.85;;;;;;;-6.31;86.48;99659.78;4188591;28;20061;-72
2022/03/10 04:46:30;;;;;;;24.70;12.38;;;;;;;-6.31;86.75;99653.59;4188146;28;20033;-72
2022/03/10 04:48:31;;;;;;;24.85;13.48;;;;;;;-6.29;86.52;99657.69;4188494;28;20392;-71
2022/03/10 04:50:31;;;;;;;52.90;21.52;;;;;;;-6.35;87.18;99669.41;4199101;28;20954;-72
2022/03/10 04:52:32;;;;;;;58.08;22.25;;;;;;;-6.40;87.42;99668.50;4192239;28;20041;-72
2022/03/10 04:54:32;;;;;;;48.00;18.95;;;;;;;-6.48;87.92;99663.47;4188789;28;20037;-72
2022/03/10 04:56:33;;;;;;;46.30;19.33;;;;;;;-6.51;88.84;99670.16;4189464;28;20036;-72
2022/03/10 04:58:34;;;;;;;51.47;19.30;;;;;;;-6.61;89.51;99672.66;4203024;28;20472;-71
2022/03/10 05:00:35;;;;;;;43.38;19.45;;;;;;;-6.61;89.04;99667.25;4198531;28;20070;-72
2022/03/10 05:02:35;;;;;;;54.00;20.38;;;;;;;-6.66;90.01;99662.56;4203169;28;20459;-72
2022/03/10 05:04:35;;;;;;;32.67;17.50;;;;;;;-6.68;90.02;99672.78;4192865;28;20052;-72
2022/03/10 05:06:36;;;;;;;23.25;12.55;;;;;;;-6.73;89.69;99666.44;4203135;28;20059;-72
2022/03/10 05:08:36;;;;;;;29.77;14.63;;;;;;;-6.76;89.56;99661.56;4202159;28;20451;-72
2022/03/10 05:10:36;;;;;;;22.67;12.93;;;;;;;-6.82;90.11;99669.50;4202506;28;20044;-72
2022/03/10 05:12:52;;;;;;;21.15;11.02;;;;;;;-6.85;91.48;99669.97;4191616;28;20033;-72
2022/03/10 05:14:53;;;;;;;24.10;11.90;;;;;;;-6.85;91.25;99669.97;4193631;28;20514;-72
2022/03/10 05:16:54;;;;;;;28.58;13.35;;;;;;;-6.76;92.05;99666.94;4197228;28;20044;-72
2022/03/10 05:18:54;;;;;;;30.17;14.63;;;;;;;-6.74;92.47;99667.50;4189536;28;20040;-72
2022/03/10 05:20:55;;;;;;;34.72;14.65;;;;;;;-6.79;93.15;99669.00;4203476;28;20437;-71
2022/03/10 05:22:58;;;;;;;25.77;14.07;;;;;;;-6.81;92.51;99660.38;4202408;28;20046;-71
2022/03/10 05:24:58;;;;;;;27.85;13.15;;;;;;;-6.84;92.31;99665.41;4202754;28;20257;-71
2022/03/10 05:27:00;;;;;;;30.33;13.20;;;;;;;-6.90;91.86;99672.53;4197906;28;20048;-71
2022/03/10 05:29:00;;;;;;;25.23;12.38;;;;;;;-6.92;92.02;99663.09;4192911;28;20043;-72
2022/03/10 05:31:01;;;;;;;19.90;11.43;;;;;;;-6.97;92.44;99669.16;4190158;28;20413;-72
2022/03/10 05:33:01;;;;;;;20.60;10.15;;;;;;;-6.99;92.20;99667.75;4192424;28;20261;-72
2022/03/10 05:35:03;;;;;;;17.30;10.75;;;;;;;-6.99;92.62;99676.66;4187853;28;20114;-72
2022/03/10 05:37:03;;;;;;;18.60;9.87;;;;;;;-7.01;92.07;99677.94;4188913;28;20048;-72
2022/03/10 05:39:04;;;;;;;19.65;8.98;;;;;;;-7.08;91.91;99675.38;4202438;28;20271;-72
2022/03/10 05:41:05;;;;;;;17.20;9.38;;;;;;;-7.06;93.43;99681.31;4202669;28;20040;-72
2022/03/10 05:43:06;;;;;;;25.42;11.88;;;;;;;-7.02;91.55;99679.00;4202730;28;20036;-72
2022/03/10 05:45:07;;;;;;;35.35;14.35;;;;;;;-6.94;90.86;99681.34;4201772;28;20129;-72
2022/03/10 05:47:09;;;;;;;26.75;12.23;;;;;;;-6.93;90.36;99674.91;4197753;28;20036;-72
2022/03/10 05:49:09;;;;;;;24.05;12.60;;;;;;;-6.92;90.32;99688.13;4187411;28;20047;-72
2022/03/10 05:51:10;;;;;;;31.25;13.93;;;;;;;-6.89;90.44;99678.75;4196731;28;20647;-72
2022/03/10 05:53:11;;;;;;;31.83;14.80;;;;;;;-6.87;89.66;99693.63;4192076;28;20056;-72
2022/03/10 05:55:13;;;;;;;24.05;13.50;;;;;;;-6.87;90.08;99688.25;4201984;28;20423;-72
2022/03/10 05:57:14;;;;;;;28.63;13.20;;;;;;;-6.89;90.73;99694.88;4201999;28;20052;-72
2022/03/10 05:59:14;;;;;;;25.92;11.80;;;;;;;-6.90;90.50;99695.94;4201783;28;20050;-72
2022/03/10 06:01:14;;;;;;;28.45;12.82;;;;;;;-6.91;89.83;99699.69;4202412;28;20044;-72
2022/03/10 06:03:15;;;;;;;27.52;12.70;;;;;;;-6.96;91.87;99699.56;4198859;28;20062;-72
2022/03/10 06:05:15;;;;;;;22.27;11.30;;;;;;;-6.96;92.25;99700.38;4202256;28;20040;-72
2022/03/10 06:07:16;;;;;;;23.95;12.38;;;;;;;-6.95;92.40;99714.66;4196113;28;20119;-72
2022/03/10 06:09:16;;;;;;;21.10;11.00;;;;;;;-6.93;92.24;99709.88;4186372;28;20047;-72
2022/03/10 06:11:17;;;;;;;22.23;11.13;;;;;;;-6.92;91.86;99708.81;4188685;28;20461;-72
2022/03/10 06:13:17;;;;;;;25.25;12.95;;;;;;;-6.91;92.25;99715.84;4190074;28;20143;-72
2022/03/10 06:15:18;;;;;;;21.85;10.85;;;;;;;-6.90;92.72;99714.78;4202456;28;20081;-72
2022/03/10 06:17:18;;;;;;;25.73;12.38;;;;;;;-6.86;92.54;99715.97;4199766;28;20040;-72
2022/03/10 06:19:19;;;;;;;25.27;12.00;;;;;;;-6.86;92.55;99721.34;4188868;28;20323;-72
2022/03/10 06:21:21;;;;;;;23.20;12.02;;;;;;;-6.84;93.17;99722.75;4193107;28;20450;-72
2022/03/10 06:23:21;;;;;;;26.52;12.93;;;;;;;-6.80;93.53;99723.91;4186724;28;20037;-72
2022/03/10 06:25:22;;;;;;;22.55;12.70;;;;;;;-6.79;93.54;99727.41;4186985;28;20051;-72
2022/03/10 06:27:23;;;;;;;26.60;11.68;;;;;;;-6.76;93.42;99718.88;4186122;28;20057;-72
2022/03/10 06:29:23;;;;;;;24.52;11.73;;;;;;;-6.74;93.23;99724.84;4186623;28;20472;-72
2022/03/10 06:31:24;;;;;;;29.52;12.77;;;;;;;-6.70;93.66;99728.72;4192050;28;20051;-72
2022/03/10 06:33:25;;;;;;;23.98;11.02;;;;;;;-6.63;93.33;99728.56;4186602;28;20090;-72
2022/03/10 06:35:25;;;;;;;19.90;11.23;;;;;;;-6.62;93.39;99730.22;4186742;28;20040;-71
2022/03/10 06:37:27;;;;;;;17.08;10.25;;;;;;;-6.53;91.50;99732.34;4186127;28;20349;-71
2022/03/10 06:39:27;;;;;;;23.08;11.10;;;;;;;-6.52;91.03;99725.88;4186559;28;20507;-71
2022/03/10 06:41:27;;;;;;;23.02;11.82;;;;;;;-6.47;91.09;99724.34;4185969;28;20045;-72
2022/03/10 06:43:28;;;;;;;25.20;11.55;;;;;;;-6.44;91.50;99734.66;4191292;28;20028;-72
2022/03/10 06:45:28;;;;;;;21.60;11.38;;;;;;;-6.38;92.49;99737.19;4193384;28;20043;-72
2022/03/10 06:47:28;;;;;;;29.13;15.02;;;;;;;-6.29;91.62;99730.41;4182979;28;20452;-72
2022/03/10 06:49:28;;;;;;;31.10;15.15;;;;;;;-6.23;92.23;99724.06;4185931;28;20041;-72
2022/03/10 06:51:29;;;;;;;25.83;11.85;;;;;;;-6.14;93.23;99721.00;4119565;28;20044;-72
2022/03/10 06:53:29;;;;;;;23.55;11.32;;;;;;;-6.05;93.65;99728.47;4190197;28;20185;-72
2022/03/10 06:55:29;;;;;;;26.95;11.95;;;;;;;-5.93;94.05;99719.53;4185887;28;20499;-72
2022/03/10 06:57:30;;;;;;;22.23;11.50;;;;;;;-5.84;93.45;99724.25;4184794;28;20037;-72
2022/03/10 06:59:30;;;;;;;20.70;11.93;;;;;;;-5.78;93.08;99728.69;4185758;28;20380;-72
2022/03/10 07:01:31;;;;;;;22.40;12.02;;;;;;;-5.73;92.78;99723.38;4185535;28;20056;-72
2022/03/10 07:03:31;;;;;;;22.98;11.95;;;;;;;-5.59;93.59;99734.72;4186089;28;20448;-72
2022/03/10 07:05:31;;;;;;;21.30;11.10;;;;;;;-5.51;93.05;99723.53;4193636;28;20081;-72
2022/03/10 07:07:31;;;;;;;30.10;13.35;;;;;;;-5.35;93.09;99737.28;4199444;28;20492;-72
2022/03/10 07:09:32;;;;;;;26.60;12.60;;;;;;;-5.30;92.64;99726.56;4201184;28;20116;-72
2022/03/10 07:11:32;;;;;;;28.60;11.85;;;;;;;-5.21;92.36;99733.22;4188604;28;20052;-72
2022/03/10 07:13:34;;;;;;;20.63;10.90;;;;;;;-5.17;92.00;99728.94;4200719;28;20829;-72
2022/03/10 07:15:34;;;;;;;25.95;11.98;;;;;;;-5.05;91.86;99732.38;4191283;28;20033;-72
2022/03/10 07:17:34;;;;;;;24.20;12.80;;;;;;;-4.95;91.16;99732.56;4185473;28;20503;-71
2022/03/10 07:19:35;;;;;;;21.38;12.02;;;;;;;-4.87;91.26;99739.44;4185554;28;20040;-72
2022/03/10 07:21:37;;;;;;;26.25;13.57;;;;;;;-4.78;91.54;99735.25;4186114;28;20049;-72
2022/03/10 07:23:38;;;;;;;;;;;;;;;-4.70;90.58;99751.03;4198634;28;20131;-71
2022/03/10 07:25:38;;;;;;;22.85;10.77;;;;;;;-4.65;90.69;99755.69;4185356;28;20435;-71
2022/03/10 07:27:38;;;;;;;23.70;11.45;;;;;;;-4.58;89.58;99750.94;4184846;28;20044;-72
2022/03/10 07:29:39;;;;;;;19.52;11.48;;;;;;;-4.45;90.80;99741.66;4185352;28;20481;-72
2022/03/10 07:31:39;;;;;;;23.17;11.05;;;;;;;-4.37;90.43;99749.34;4185745;28;20781;-72
2022/03/10 07:33:39;;;;;;;20.25;10.45;;;;;;;-4.34;89.48;99748.84;4186497;28;20036;-72
2022/03/10 07:35:40;;;;;;;20.42;10.63;;;;;;;-4.29;88.27;99751.63;4185616;28;20504;-72
2022/03/10 07:37:40;;;;;;;22.65;10.43;;;;;;;-4.22;87.49;99756.81;4183978;28;20318;-72
2022/03/10 07:39:41;;;;;;;25.88;12.07;;;;;;;-4.13;88.43;99755.34;4196522;28;20063;-72
2022/03/10 07:41:41;;;;;;;20.90;11.43;;;;;;;-4.04;89.59;99753.84;4188028;28;20041;-72
2022/03/10 07:43:41;;;;;;;19.73;10.70;;;;;;;-3.96;89.46;99759.63;4183713;28;20097;-72
2022/03/10 07:45:42;;;;;;;21.83;12.77;;;;;;;-3.85;90.06;99754.31;4182375;28;20459;-72
2022/03/10 07:47:43;;;;;;;23.92;12.25;;;;;;;-3.57;94.06;99759.50;4180347;28;20288;-72
2022/03/10 07:49:44;;;;;;;21.45;11.05;;;;;;;-3.44;92.96;99759.09;4181389;28;20120;-71
2022/03/10 07:51:44;;;;;;;19.80;12.05;;;;;;;-3.12;91.61;99759.16;4180553;28;20045;-72
2022/03/10 07:53:44;;;;;;;21.00;11.55;;;;;;;-2.92;90.99;99765.81;4185695;28;20480;-72
2022/03/10 07:55:45;;;;;;;23.02;11.77;;;;;;;-2.78;88.17;99768.91;4183887;28;20241;-72
2022/03/10 07:57:45;;;;;;;20.13;10.95;;;;;;;-2.74;87.27;99762.69;4181254;28;20049;-72
2022/03/10 07:59:47;;;;;;;20.58;11.27;;;;;;;-2.63;87.03;99771.75;4181060;28;20051;-72
2022/03/10 08:01:48;;;;;;;24.80;12.40;;;;;;;-2.49;86.51;99766.66;4181047;28;20141;-72
2022/03/10 08:03:48;;;;;;;24.30;12.18;;;;;;;-2.41;86.60;99769.69;4184605;28;20144;-72
2022/03/10 08:05:50;;;;;;;21.52;11.50;;;;;;;-2.34;85.48;99773.00;4191299;28;20040;-72
2022/03/10 08:07:50;;;;;;;21.88;11.48;;;;;;;-2.28;84.53;99779.28;4189231;28;20313;-71
2022/03/10 08:09:50;;;;;;;23.80;11.40;;;;;;;-2.26;84.04;99766.28;4194387;28;20097;-71
2022/03/10 08:11:51;;;;;;;19.33;10.80;;;;;;;-2.25;84.20;99767.91;4191243;28;21033;-71
2022/03/10 08:13:51;;;;;;;22.13;11.55;;;;;;;-2.27;84.16;99754.63;4193700;28;20048;-71
2022/03/10 08:15:54;;;;;;;22.60;12.40;;;;;;;-2.21;84.47;99755.47;4196729;28;20048;-72
2022/03/10 08:17:55;;;;;;;27.73;13.40;;;;;;;-2.04;83.43;99763.41;4192088;28;20064;-72
2022/03/10 08:19:55;;;;;;;21.15;11.45;;;;;;;-1.98;83.01;99757.75;4191893;28;20387;-72
2022/03/10 08:21:55;;;;;;;18.60;11.07;;;;;;;-1.97;82.80;99755.84;4195050;28;20315;-72
2022/03/10 08:23:56;;;;;;;26.08;11.27;;;;;;;-1.92;83.06;99752.34;4193938;28;20041;-72
2022/03/10 08:25:56;;;;;;;21.17;10.50;;;;;;;-1.89;82.76;99749.94;4193767;28;20511;-72
2022/03/10 08:27:56;;;;;;;22.90;11.32;;;;;;;-1.84;82.16;99755.34;4193598;28;20043;-72
2022/03/10 08:29:57;;;;;;;21.15;10.57;;;;;;;-1.83;82.03;99739.88;4193540;28;20874;-72
2022/03/10 08:31:57;;;;;;;18.75;10.27;;;;;;;-1.76;81.77;99744.00;4192642;28;20072;-72
2022/03/10 08:33:57;;;;;;;16.15;9.38;;;;;;;-1.71;80.26;99746.72;4191721;28;20120;-72
2022/03/10 08:35:58;;;;;;;16.63;9.27;;;;;;;-1.65;79.85;99744.84;4186019;28;20488;-72
2022/03/10 08:37:58;;;;;;;16.20;9.55;;;;;;;-1.58;79.77;99744.59;4190175;28;20480;-72
2022/03/10 08:39:58;;;;;;;19.27;10.60;;;;;;;-1.44;80.33;99748.44;4183903;28;21453;-72
2022/03/10 08:41:59;;;;;;;14.88;10.15;;;;;;;-1.34;80.63;99753.88;4183607;28;20044;-72
2022/03/10 08:44:00;;;;;;;21.38;12.88;;;;;;;-1.14;80.98;99740.34;4183125;28;20302;-72
2022/03/10 08:46:03;;;;;;;23.55;13.82;;;;;;;-1.01;80.45;99746.31;4187566;28;20440;-72
2022/03/10 08:48:04;;;;;;;27.65;15.93;;;;;;;-0.86;79.85;99754.47;4189881;28;20040;-72
2022/03/10 08:50:05;;;;;;;21.98;11.95;;;;;;;-0.77;79.20;99741.97;4191316;28;20078;-72
2022/03/10 08:52:05;;;;;;;27.17;16.55;;;;;;;-0.64;78.90;99752.28;4194189;28;20685;-72
2022/03/10 08:54:06;;;;;;;28.38;15.70;;;;;;;-0.57;78.53;99744.66;4193051;28;20268;-72
2022/03/10 08:56:07;;;;;;;28.25;16.58;;;;;;;-0.44;78.72;99737.03;4194622;28;20429;-72
2022/03/10 08:58:08;;;;;;;21.00;13.25;;;;;;;-0.31;78.24;99734.56;4192756;28;20424;-72
2022/03/10 09:00:10;;;;;;;20.75;12.95;;;;;;;-0.24;76.26;99737.00;4192757;28;20028;-72
2022/03/10 09:02:12;;;;;;;20.60;11.23;;;;;;;-0.21;76.62;99736.44;4192153;28;20083;-72
2022/03/10 09:04:12;;;;;;;17.08;10.70;;;;;;;-0.15;76.76;99738.06;4192088;28;20081;-72
2022/03/10 09:06:13;;;;;;;20.52;12.82;;;;;;;-0.13;74.09;99735.88;4190137;28;20264;-72
2022/03/10 09:08:14;;;;;;;21.55;11.10;;;;;;;-0.07;76.08;99740.22;4192755;28;20028;-71
2022/03/10 09:10:15;;;;;;;18.05;10.38;;;;;;;-0.05;76.07;99732.56;4191253;28;20468;-72
2022/03/10 09:12:15;;;;;;;17.38;10.20;;;;;;;0.05;76.51;99739.06;4192923;28;20382;-72
2022/03/10 09:14:16;;;;;;;18.20;10.00;;;;;;;0.15;76.01;99734.38;4192539;28;20027;-72
2022/03/10 09:16:18;;;;;;;17.95;9.98;;;;;;;0.25;75.82;99728.09;4190516;28;20131;-72
2022/03/10 09:18:18;;;;;;;20.15;11.68;;;;;;;0.33;74.92;99732.94;4191263;28;20232;-71
2022/03/10 09:20:19;;;;;;;19.33;9.98;;;;;;;0.43;74.66;99726.66;4192436;28;20025;-71